sensor_id;sensor_type;location;lat;lon;timestamp;P1;durP1;ratioP1;P2;durP2;ratioP2
2406;SDS011;37709;53.480;9.688;2023-09-18T00:01:41;7.60;;;7.03;;
2406;SDS011;37709;53.480;9.688;2023-09-18T00:04:09;6.97;;;6.37;;
2406;SDS011;37709;53.480;9.688;2023-09-18T00:06:38;8.13;;;7.43;;
2406;SDS011;37709;53.480;9.688;2023-09-18T00:09:06;7.57;;;6.97;;
2406;SDS011;37709;53.480;9.688;2023-09-18T00:11:38;8.83;;;7.80;;
2406;SDS011;37709;53.480;9.688;2023-09-18T00:14:07;8.40;;;7.70;;
2406;SDS011;37709;53.480;9.688;2023-09-18T00:16:36;8.00;;;7.40;;
2406;SDS011;37709;53.480;9.688;2023-09-18T00:19:23;7.93;;;7.33;;
2406;SDS011;37709;53.480;9.688;2023-09-18T00:21:51;8.20;;;7.50;;
2406;SDS011;37709;53.480;9.688;2023-09-18T00:24:20;8.20;;;7.50;;
2406;SDS011;37709;53.480;9.688;2023-09-18T00:26:47;8.90;;;8.20;;
2406;SDS011;37709;53.480;9.688;2023-09-18T00:29:17;9.00;;;8.10;;
2406;SDS011;37709;53.480;9.688;2023-09-18T00:31:44;8.83;;;8.13;;
2406;SDS011;37709;53.480;9.688;2023-09-18T00:34:12;8.97;;;8.00;;
2406;SDS011;37709;53.480;9.688;2023-09-18T00:36:39;8.93;;;8.23;;
2406;SDS011;37709;53.480;9.688;2023-09-18T00:39:06;9.40;;;8.70;;
2406;SDS011;37709;53.480;9.688;2023-09-18T00:41:33;10.33;;;9.33;;
2406;SDS011;37709;53.480;9.688;2023-09-18T00:44:01;9.47;;;8.60;;
2406;SDS011;37709;53.480;9.688;2023-09-18T00:46:28;9.30;;;8.50;;
2406;SDS011;37709;53.480;9.688;2023-09-18T00:48:55;8.70;;;8.00;;
2406;SDS011;37709;53.480;9.688;2023-09-18T00:51:23;9.90;;;9.00;;
2406;SDS011;37709;53.480;9.688;2023-09-18T00:53:51;9.20;;;8.50;;
2406;SDS011;37709;53.480;9.688;2023-09-18T00:56:18;8.80;;;8.10;;
2406;SDS011;37709;53.480;9.688;2023-09-18T00:58:50;9.40;;;8.60;;
2406;SDS011;37709;53.480;9.688;2023-09-18T01:04:11;9.67;;;8.87;;
2406;SDS011;37709;53.480;9.688;2023-09-18T01:06:40;9.27;;;8.53;;
2406;SDS011;37709;53.480;9.688;2023-09-18T01:09:07;11.03;;;8.90;;
2406;SDS011;37709;53.480;9.688;2023-09-18T01:11:42;10.43;;;9.20;;
2406;SDS011;37709;53.480;9.688;2023-09-18T01:14:17;9.40;;;8.60;;
2406;SDS011;37709;53.480;9.688;2023-09-18T01:16:53;9.30;;;8.50;;
2406;SDS011;37709;53.480;9.688;2023-09-18T01:19:37;8.63;;;7.93;;
2406;SDS011;37709;53.480;9.688;2023-09-18T01:22:07;8.80;;;8.10;;
2406;SDS011;37709;53.480;9.688;2023-09-18T01:24:37;8.40;;;7.60;;
2406;SDS011;37709;53.480;9.688;2023-09-18T01:27:09;9.70;;;8.90;;
2406;SDS011;37709;53.480;9.688;2023-09-18T01:29:41;9.93;;;9.13;;
2406;SDS011;37709;53.480;9.688;2023-09-18T01:32:08;9.83;;;9.10;;
2406;SDS011;37709;53.480;9.688;2023-09-18T01:34:40;10.47;;;9.57;;
2406;SDS011;37709;53.480;9.688;2023-09-18T01:37:11;10.97;;;10.03;;
2406;SDS011;37709;53.480;9.688;2023-09-18T01:39:41;11.27;;;10.27;;
2406;SDS011;37709;53.480;9.688;2023-09-18T01:42:08;10.77;;;9.87;;
2406;SDS011;37709;53.480;9.688;2023-09-18T01:44:36;11.70;;;10.50;;
2406;SDS011;37709;53.480;9.688;2023-09-18T01:47:08;11.87;;;10.77;;
2406;SDS011;37709;53.480;9.688;2023-09-18T01:49:38;12.93;;;11.73;;
2406;SDS011;37709;53.480;9.688;2023-09-18T01:52:08;11.93;;;10.83;;
2406;SDS011;37709;53.480;9.688;2023-09-18T01:54:38;11.40;;;10.30;;
2406;SDS011;37709;53.480;9.688;2023-09-18T01:57:07;11.67;;;10.73;;
2406;SDS011;37709;53.480;9.688;2023-09-18T01:59:34;10.97;;;9.97;;
2406;SDS011;37709;53.480;9.688;2023-09-18T02:02:04;10.80;;;9.90;;
2406;SDS011;37709;53.480;9.688;2023-09-18T02:04:48;10.63;;;9.77;;
2406;SDS011;37709;53.480;9.688;2023-09-18T02:07:34;11.90;;;10.77;;
2406;SDS011;37709;53.480;9.688;2023-09-18T02:10:08;11.70;;;10.70;;
2406;SDS011;37709;53.480;9.688;2023-09-18T02:12:36;12.13;;;11.03;;
2406;SDS011;37709;53.480;9.688;2023-09-18T02:15:05;11.27;;;10.33;;
2406;SDS011;37709;53.480;9.688;2023-09-18T02:17:33;12.17;;;11.07;;
2406;SDS011;37709;53.480;9.688;2023-09-18T02:20:01;13.50;;;12.30;;
2406;SDS011;37709;53.480;9.688;2023-09-18T02:22:32;11.53;;;10.63;;
2406;SDS011;37709;53.480;9.688;2023-09-18T02:24:59;11.03;;;10.03;;
2406;SDS011;37709;53.480;9.688;2023-09-18T02:27:27;11.93;;;10.87;;
2406;SDS011;37709;53.480;9.688;2023-09-18T02:29:54;12.50;;;11.30;;
2406;SDS011;37709;53.480;9.688;2023-09-18T02:32:21;11.20;;;10.20;;
2406;SDS011;37709;53.480;9.688;2023-09-18T02:34:49;11.03;;;9.93;;
2406;SDS011;37709;53.480;9.688;2023-09-18T02:37:16;12.87;;;11.73;;
2406;SDS011;37709;53.480;9.688;2023-09-18T02:39:43;12.27;;;11.07;;
2406;SDS011;37709;53.480;9.688;2023-09-18T02:42:12;11.87;;;10.83;;
2406;SDS011;37709;53.480;9.688;2023-09-18T02:44:39;12.23;;;11.03;;
2406;SDS011;37709;53.480;9.688;2023-09-18T02:47:08;12.67;;;11.40;;
2406;SDS011;37709;53.480;9.688;2023-09-18T02:49:36;12.37;;;11.20;;
2406;SDS011;37709;53.480;9.688;2023-09-18T02:52:04;13.60;;;12.20;;
2406;SDS011;37709;53.480;9.688;2023-09-18T02:54:31;14.93;;;12.50;;
2406;SDS011;37709;53.480;9.688;2023-09-18T02:57:00;13.90;;;11.87;;
2406;SDS011;37709;53.480;9.688;2023-09-18T02:59:29;13.13;;;11.93;;
2406;SDS011;37709;53.480;9.688;2023-09-18T03:01:56;13.90;;;12.57;;
2406;SDS011;37709;53.480;9.688;2023-09-18T03:04:23;11.63;;;10.53;;
2406;SDS011;37709;53.480;9.688;2023-09-18T03:06:51;13.70;;;12.33;;
2406;SDS011;37709;53.480;9.688;2023-09-18T03:09:18;13.90;;;12.43;;
2406;SDS011;37709;53.480;9.688;2023-09-18T03:11:46;12.93;;;11.77;;
2406;SDS011;37709;53.480;9.688;2023-09-18T03:14:13;12.40;;;11.27;;
2406;SDS011;37709;53.480;9.688;2023-09-18T03:16:41;13.53;;;12.33;;
2406;SDS011;37709;53.480;9.688;2023-09-18T03:19:09;11.97;;;10.80;;
2406;SDS011;37709;53.480;9.688;2023-09-18T03:21:37;12.53;;;11.43;;
2406;SDS011;37709;53.480;9.688;2023-09-18T03:24:05;12.03;;;10.80;;
2406;SDS011;37709;53.480;9.688;2023-09-18T03:26:33;13.57;;;12.30;;
2406;SDS011;37709;53.480;9.688;2023-09-18T03:29:03;13.30;;;12.00;;
2406;SDS011;37709;53.480;9.688;2023-09-18T03:31:31;13.00;;;11.80;;
2406;SDS011;37709;53.480;9.688;2023-09-18T03:33:59;12.93;;;11.43;;
2406;SDS011;37709;53.480;9.688;2023-09-18T03:36:27;12.70;;;11.50;;
2406;SDS011;37709;53.480;9.688;2023-09-18T03:38:54;12.73;;;11.53;;
2406;SDS011;37709;53.480;9.688;2023-09-18T03:41:22;11.87;;;10.90;;
2406;SDS011;37709;53.480;9.688;2023-09-18T03:43:50;14.93;;;11.20;;
2406;SDS011;37709;53.480;9.688;2023-09-18T03:46:17;12.87;;;11.70;;
2406;SDS011;37709;53.480;9.688;2023-09-18T03:48:48;13.23;;;12.03;;
2406;SDS011;37709;53.480;9.688;2023-09-18T03:51:16;12.80;;;11.50;;
2406;SDS011;37709;53.480;9.688;2023-09-18T03:53:45;11.47;;;10.37;;
2406;SDS011;37709;53.480;9.688;2023-09-18T03:56:13;13.03;;;11.00;;
2406;SDS011;37709;53.480;9.688;2023-09-18T03:58:41;12.10;;;10.90;;
2406;SDS011;37709;53.480;9.688;2023-09-18T04:01:10;11.43;;;10.43;;
2406;SDS011;37709;53.480;9.688;2023-09-18T04:03:37;12.93;;;10.53;;
2406;SDS011;37709;53.480;9.688;2023-09-18T04:06:05;13.33;;;12.00;;
2406;SDS011;37709;53.480;9.688;2023-09-18T04:08:33;12.20;;;11.00;;
2406;SDS011;37709;53.480;9.688;2023-09-18T04:11:00;13.83;;;12.57;;
2406;SDS011;37709;53.480;9.688;2023-09-18T04:13:30;13.77;;;12.37;;
2406;SDS011;37709;53.480;9.688;2023-09-18T04:15:57;12.10;;;10.90;;
2406;SDS011;37709;53.480;9.688;2023-09-18T04:18:27;13.67;;;12.37;;
2406;SDS011;37709;53.480;9.688;2023-09-18T04:20:59;13.67;;;12.37;;
2406;SDS011;37709;53.480;9.688;2023-09-18T04:23:26;12.87;;;11.67;;
2406;SDS011;37709;53.480;9.688;2023-09-18T04:25:54;12.50;;;11.30;;
2406;SDS011;37709;53.480;9.688;2023-09-18T04:28:22;15.17;;;13.53;;
2406;SDS011;37709;53.480;9.688;2023-09-18T04:30:50;13.57;;;12.23;;
2406;SDS011;37709;53.480;9.688;2023-09-18T04:33:22;14.30;;;13.03;;
2406;SDS011;37709;53.480;9.688;2023-09-18T04:35:50;12.70;;;11.50;;
2406;SDS011;37709;53.480;9.688;2023-09-18T04:38:18;13.43;;;12.23;;
2406;SDS011;37709;53.480;9.688;2023-09-18T04:40:47;13.33;;;11.93;;
2406;SDS011;37709;53.480;9.688;2023-09-18T04:43:14;12.50;;;11.40;;
2406;SDS011;37709;53.480;9.688;2023-09-18T04:45:44;13.53;;;12.20;;
2406;SDS011;37709;53.480;9.688;2023-09-18T04:48:14;13.10;;;11.90;;
2406;SDS011;37709;53.480;9.688;2023-09-18T04:50:42;14.63;;;12.47;;
2406;SDS011;37709;53.480;9.688;2023-09-18T04:56:03;13.70;;;12.50;;
2406;SDS011;37709;53.480;9.688;2023-09-18T04:58:31;14.10;;;12.63;;
2406;SDS011;37709;53.480;9.688;2023-09-18T05:00:59;12.87;;;11.67;;
2406;SDS011;37709;53.480;9.688;2023-09-18T05:03:35;14.00;;;12.70;;
2406;SDS011;37709;53.480;9.688;2023-09-18T05:06:05;13.43;;;11.97;;
2406;SDS011;37709;53.480;9.688;2023-09-18T05:08:32;13.27;;;11.97;;
2406;SDS011;37709;53.480;9.688;2023-09-18T05:11:00;13.63;;;12.53;;
2406;SDS011;37709;53.480;9.688;2023-09-18T05:13:28;13.67;;;12.10;;
2406;SDS011;37709;53.480;9.688;2023-09-18T05:15:56;13.43;;;12.20;;
2406;SDS011;37709;53.480;9.688;2023-09-18T05:18:25;13.00;;;11.97;;
2406;SDS011;37709;53.480;9.688;2023-09-18T05:20:55;13.27;;;11.97;;
2406;SDS011;37709;53.480;9.688;2023-09-18T05:23:23;13.50;;;12.30;;
2406;SDS011;37709;53.480;9.688;2023-09-18T05:28:43;12.53;;;11.33;;
2406;SDS011;37709;53.480;9.688;2023-09-18T05:31:11;13.20;;;11.90;;
2406;SDS011;37709;53.480;9.688;2023-09-18T05:33:38;12.63;;;11.63;;
2406;SDS011;37709;53.480;9.688;2023-09-18T05:36:05;12.40;;;11.40;;
2406;SDS011;37709;53.480;9.688;2023-09-18T05:38:32;11.93;;;10.93;;
2406;SDS011;37709;53.480;9.688;2023-09-18T05:41:00;12.13;;;11.03;;
2406;SDS011;37709;53.480;9.688;2023-09-18T05:43:27;11.87;;;10.97;;
2406;SDS011;37709;53.480;9.688;2023-09-18T05:45:55;12.00;;;10.90;;
2406;SDS011;37709;53.480;9.688;2023-09-18T05:48:22;12.57;;;11.50;;
2406;SDS011;37709;53.480;9.688;2023-09-18T05:50:50;11.80;;;10.80;;
2406;SDS011;37709;53.480;9.688;2023-09-18T05:53:19;11.80;;;10.60;;
2406;SDS011;37709;53.480;9.688;2023-09-18T05:55:47;12.00;;;10.90;;
2406;SDS011;37709;53.480;9.688;2023-09-18T05:58:15;10.40;;;9.50;;
2406;SDS011;37709;53.480;9.688;2023-09-18T06:00:44;11.37;;;10.20;;
2406;SDS011;37709;53.480;9.688;2023-09-18T06:03:13;10.87;;;9.83;;
2406;SDS011;37709;53.480;9.688;2023-09-18T06:05:42;10.70;;;9.80;;
2406;SDS011;37709;53.480;9.688;2023-09-18T06:08:09;11.20;;;10.30;;
2406;SDS011;37709;53.480;9.688;2023-09-18T06:10:37;10.33;;;9.33;;
2406;SDS011;37709;53.480;9.688;2023-09-18T06:13:09;9.77;;;8.87;;
2406;SDS011;37709;53.480;9.688;2023-09-18T06:15:36;9.57;;;8.80;;
2406;SDS011;37709;53.480;9.688;2023-09-18T06:18:04;11.43;;;10.40;;
2406;SDS011;37709;53.480;9.688;2023-09-18T06:20:33;10.10;;;9.10;;
2406;SDS011;37709;53.480;9.688;2023-09-18T06:23:00;9.10;;;8.47;;
2406;SDS011;37709;53.480;9.688;2023-09-18T06:25:30;8.47;;;7.77;;
2406;SDS011;37709;53.480;9.688;2023-09-18T06:27:58;7.93;;;7.33;;
2406;SDS011;37709;53.480;9.688;2023-09-18T06:30:27;9.13;;;7.53;;
2406;SDS011;37709;53.480;9.688;2023-09-18T06:32:57;7.80;;;7.20;;
2406;SDS011;37709;53.480;9.688;2023-09-18T06:35:24;7.67;;;6.97;;
2406;SDS011;37709;53.480;9.688;2023-09-18T06:37:52;7.50;;;6.83;;
2406;SDS011;37709;53.480;9.688;2023-09-18T06:40:21;8.00;;;7.30;;
2406;SDS011;37709;53.480;9.688;2023-09-18T06:42:50;8.80;;;7.20;;
2406;SDS011;37709;53.480;9.688;2023-09-18T06:45:20;6.90;;;6.40;;
2406;SDS011;37709;53.480;9.688;2023-09-18T06:47:48;6.80;;;6.30;;
2406;SDS011;37709;53.480;9.688;2023-09-18T06:50:18;6.83;;;5.77;;
2406;SDS011;37709;53.480;9.688;2023-09-18T06:52:45;9.57;;;8.60;;
2406;SDS011;37709;53.480;9.688;2023-09-18T06:55:14;8.37;;;7.63;;
2406;SDS011;37709;53.480;9.688;2023-09-18T06:57:43;7.17;;;6.57;;
2406;SDS011;37709;53.480;9.688;2023-09-18T07:00:12;7.13;;;6.50;;
2406;SDS011;37709;53.480;9.688;2023-09-18T07:02:43;7.00;;;6.50;;
2406;SDS011;37709;53.480;9.688;2023-09-18T07:08:03;13.57;;;12.23;;
2406;SDS011;37709;53.480;9.688;2023-09-18T07:10:32;7.43;;;6.63;;
2406;SDS011;37709;53.480;9.688;2023-09-18T07:12:59;6.90;;;6.27;;
2406;SDS011;37709;53.480;9.688;2023-09-18T07:15:27;6.40;;;5.90;;
2406;SDS011;37709;53.480;9.688;2023-09-18T07:17:54;7.20;;;6.50;;
2406;SDS011;37709;53.480;9.688;2023-09-18T07:20:22;6.90;;;6.40;;
2406;SDS011;37709;53.480;9.688;2023-09-18T07:22:50;7.17;;;5.93;;
2406;SDS011;37709;53.480;9.688;2023-09-18T07:25:17;8.70;;;7.93;;
2406;SDS011;37709;53.480;9.688;2023-09-18T07:27:45;6.90;;;6.30;;
2406;SDS011;37709;53.480;9.688;2023-09-18T07:30:12;6.23;;;5.77;;
2406;SDS011;37709;53.480;9.688;2023-09-18T07:32:45;6.00;;;5.50;;
2406;SDS011;37709;53.480;9.688;2023-09-18T07:35:13;5.67;;;5.27;;
2406;SDS011;37709;53.480;9.688;2023-09-18T07:37:43;6.60;;;6.10;;
2406;SDS011;37709;53.480;9.688;2023-09-18T07:40:12;6.17;;;5.53;;
2406;SDS011;37709;53.480;9.688;2023-09-18T07:42:40;5.63;;;5.13;;
2406;SDS011;37709;53.480;9.688;2023-09-18T07:45:08;7.00;;;6.40;;
2406;SDS011;37709;53.480;9.688;2023-09-18T07:47:36;5.30;;;4.90;;
2406;SDS011;37709;53.480;9.688;2023-09-18T07:50:03;5.40;;;5.00;;
2406;SDS011;37709;53.480;9.688;2023-09-18T07:52:33;5.50;;;5.00;;
2406;SDS011;37709;53.480;9.688;2023-09-18T07:55:01;6.07;;;5.20;;
2406;SDS011;37709;53.480;9.688;2023-09-18T07:57:29;6.90;;;5.27;;
2406;SDS011;37709;53.480;9.688;2023-09-18T08:00:00;5.20;;;4.80;;
2406;SDS011;37709;53.480;9.688;2023-09-18T08:02:39;5.73;;;5.20;;
2406;SDS011;37709;53.480;9.688;2023-09-18T08:05:07;5.40;;;4.90;;
2406;SDS011;37709;53.480;9.688;2023-09-18T08:07:38;5.10;;;4.70;;
2406;SDS011;37709;53.480;9.688;2023-09-18T08:10:05;5.15;;;4.75;;
2406;SDS011;37709;53.480;9.688;2023-09-18T08:12:35;5.77;;;5.37;;
2406;SDS011;37709;53.480;9.688;2023-09-18T08:15:04;5.57;;;5.17;;
2406;SDS011;37709;53.480;9.688;2023-09-18T08:17:33;5.43;;;5.03;;
2406;SDS011;37709;53.480;9.688;2023-09-18T08:20:00;5.73;;;5.23;;
2406;SDS011;37709;53.480;9.688;2023-09-18T08:22:28;5.63;;;5.20;;
2406;SDS011;37709;53.480;9.688;2023-09-18T08:24:55;5.70;;;5.30;;
2406;SDS011;37709;53.480;9.688;2023-09-18T08:27:23;6.50;;;6.00;;
2406;SDS011;37709;53.480;9.688;2023-09-18T08:29:52;6.27;;;5.77;;
2406;SDS011;37709;53.480;9.688;2023-09-18T08:32:19;5.30;;;4.90;;
2406;SDS011;37709;53.480;9.688;2023-09-18T08:34:53;5.60;;;5.20;;
2406;SDS011;37709;53.480;9.688;2023-09-18T08:37:21;6.50;;;6.00;;
2406;SDS011;37709;53.480;9.688;2023-09-18T08:39:48;5.97;;;5.47;;
2406;SDS011;37709;53.480;9.688;2023-09-18T08:42:16;5.00;;;4.70;;
2406;SDS011;37709;53.480;9.688;2023-09-18T08:44:50;5.80;;;5.30;;
2406;SDS011;37709;53.480;9.688;2023-09-18T08:47:21;5.47;;;5.07;;
2406;SDS011;37709;53.480;9.688;2023-09-18T08:49:54;5.37;;;4.87;;
2406;SDS011;37709;53.480;9.688;2023-09-18T08:52:22;5.37;;;4.87;;
2406;SDS011;37709;53.480;9.688;2023-09-18T08:54:53;6.10;;;5.37;;
2406;SDS011;37709;53.480;9.688;2023-09-18T08:57:21;7.30;;;6.53;;
2406;SDS011;37709;53.480;9.688;2023-09-18T08:59:49;5.73;;;5.23;;
2406;SDS011;37709;53.480;9.688;2023-09-18T09:02:19;6.27;;;5.80;;
2406;SDS011;37709;53.480;9.688;2023-09-18T09:04:46;7.13;;;6.43;;
2406;SDS011;37709;53.480;9.688;2023-09-18T09:07:18;6.27;;;5.73;;
2406;SDS011;37709;53.480;9.688;2023-09-18T09:09:48;7.60;;;6.60;;
2406;SDS011;37709;53.480;9.688;2023-09-18T09:15:23;5.03;;;4.63;;
2406;SDS011;37709;53.480;9.688;2023-09-18T09:18:04;6.07;;;5.57;;
2406;SDS011;37709;53.480;9.688;2023-09-18T09:20:34;6.57;;;6.07;;
2406;SDS011;37709;53.480;9.688;2023-09-18T09:23:07;5.10;;;4.73;;
2406;SDS011;37709;53.480;9.688;2023-09-18T09:25:36;4.63;;;4.23;;
2406;SDS011;37709;53.480;9.688;2023-09-18T09:28:04;5.40;;;4.90;;
2406;SDS011;37709;53.480;9.688;2023-09-18T09:30:34;4.57;;;4.17;;
2406;SDS011;37709;53.480;9.688;2023-09-18T09:33:04;4.97;;;4.47;;
2406;SDS011;37709;53.480;9.688;2023-09-18T09:35:33;4.33;;;4.03;;
2406;SDS011;37709;53.480;9.688;2023-09-18T09:38:12;4.00;;;3.70;;
2406;SDS011;37709;53.480;9.688;2023-09-18T09:40:43;4.70;;;4.30;;
2406;SDS011;37709;53.480;9.688;2023-09-18T09:43:12;4.60;;;4.20;;
2406;SDS011;37709;53.480;9.688;2023-09-18T09:45:42;6.00;;;4.47;;
2406;SDS011;37709;53.480;9.688;2023-09-18T09:48:12;5.00;;;4.30;;
2406;SDS011;37709;53.480;9.688;2023-09-18T09:50:43;5.03;;;4.43;;
2406;SDS011;37709;53.480;9.688;2023-09-18T09:53:16;4.73;;;4.33;;
2406;SDS011;37709;53.480;9.688;2023-09-18T09:55:45;4.47;;;4.07;;
2406;SDS011;37709;53.480;9.688;2023-09-18T09:58:20;5.93;;;4.37;;
2406;SDS011;37709;53.480;9.688;2023-09-18T10:00:53;4.50;;;3.90;;
2406;SDS011;37709;53.480;9.688;2023-09-18T10:03:26;5.67;;;5.17;;
2406;SDS011;37709;53.480;9.688;2023-09-18T10:05:55;3.83;;;3.50;;
2406;SDS011;37709;53.480;9.688;2023-09-18T10:08:25;4.57;;;4.00;;
2406;SDS011;37709;53.480;9.688;2023-09-18T10:10:55;5.80;;;4.13;;
2406;SDS011;37709;53.480;9.688;2023-09-18T10:13:36;3.77;;;3.40;;
2406;SDS011;37709;53.480;9.688;2023-09-18T10:16:14;5.07;;;4.37;;
2406;SDS011;37709;53.480;9.688;2023-09-18T10:19:00;4.17;;;3.80;;
2406;SDS011;37709;53.480;9.688;2023-09-18T10:21:41;4.90;;;4.40;;
2406;SDS011;37709;53.480;9.688;2023-09-18T10:24:24;5.60;;;3.87;;
2406;SDS011;37709;53.480;9.688;2023-09-18T10:26:57;4.80;;;4.23;;
2406;SDS011;37709;53.480;9.688;2023-09-18T10:29:31;3.93;;;3.43;;
2406;SDS011;37709;53.480;9.688;2023-09-18T10:32:01;5.30;;;4.80;;
2406;SDS011;37709;53.480;9.688;2023-09-18T10:34:31;5.30;;;3.60;;
2406;SDS011;37709;53.480;9.688;2023-09-18T10:37:01;7.53;;;4.30;;
2406;SDS011;37709;53.480;9.688;2023-09-18T10:39:37;6.07;;;4.23;;
2406;SDS011;37709;53.480;9.688;2023-09-18T10:42:10;4.00;;;3.50;;
2406;SDS011;37709;53.480;9.688;2023-09-18T10:44:41;11.77;;;4.50;;
2406;SDS011;37709;53.480;9.688;2023-09-18T10:47:09;5.93;;;4.23;;
2406;SDS011;37709;53.480;9.688;2023-09-18T10:49:38;3.63;;;3.33;;
2406;SDS011;37709;53.480;9.688;2023-09-18T10:52:10;4.40;;;3.53;;
2406;SDS011;37709;53.480;9.688;2023-09-18T10:54:39;4.33;;;3.93;;
2406;SDS011;37709;53.480;9.688;2023-09-18T10:57:07;3.67;;;3.37;;
2406;SDS011;37709;53.480;9.688;2023-09-18T10:59:34;4.50;;;3.57;;
2406;SDS011;37709;53.480;9.688;2023-09-18T11:02:14;4.00;;;3.10;;
2406;SDS011;37709;53.480;9.688;2023-09-18T11:04:46;3.83;;;3.43;;
2406;SDS011;37709;53.480;9.688;2023-09-18T11:07:21;5.90;;;4.27;;
2406;SDS011;37709;53.480;9.688;2023-09-18T11:09:49;4.70;;;3.30;;
2406;SDS011;37709;53.480;9.688;2023-09-18T11:12:17;5.30;;;3.53;;
2406;SDS011;37709;53.480;9.688;2023-09-18T11:14:49;4.53;;;3.17;;
2406;SDS011;37709;53.480;9.688;2023-09-18T11:20:05;5.17;;;3.80;;
2406;SDS011;37709;53.480;9.688;2023-09-18T11:22:39;5.60;;;3.80;;
2406;SDS011;37709;53.480;9.688;2023-09-18T11:28:06;3.70;;;3.13;;
2406;SDS011;37709;53.480;9.688;2023-09-18T11:30:35;3.60;;;3.30;;
2406;SDS011;37709;53.480;9.688;2023-09-18T11:33:04;5.53;;;3.40;;
2406;SDS011;37709;53.480;9.688;2023-09-18T11:35:32;6.13;;;3.03;;
2406;SDS011;37709;53.480;9.688;2023-09-18T11:38:10;6.50;;;3.23;;
2406;SDS011;37709;53.480;9.688;2023-09-18T11:40:39;7.23;;;3.60;;
2406;SDS011;37709;53.480;9.688;2023-09-18T11:43:21;5.97;;;3.27;;
2406;SDS011;37709;53.480;9.688;2023-09-18T11:45:59;7.50;;;3.30;;
2406;SDS011;37709;53.480;9.688;2023-09-18T11:48:28;3.50;;;2.90;;
2406;SDS011;37709;53.480;9.688;2023-09-18T11:51:01;4.17;;;2.60;;
2406;SDS011;37709;53.480;9.688;2023-09-18T11:53:33;4.20;;;2.50;;
2406;SDS011;37709;53.480;9.688;2023-09-18T11:56:02;4.87;;;2.40;;
2406;SDS011;37709;53.480;9.688;2023-09-18T11:58:30;4.27;;;2.73;;
2406;SDS011;37709;53.480;9.688;2023-09-18T12:01:11;3.43;;;2.53;;
2406;SDS011;37709;53.480;9.688;2023-09-18T12:03:39;4.33;;;3.17;;
2406;SDS011;37709;53.480;9.688;2023-09-18T12:06:07;9.10;;;3.33;;
2406;SDS011;37709;53.480;9.688;2023-09-18T12:08:36;4.13;;;2.57;;
2406;SDS011;37709;53.480;9.688;2023-09-18T12:11:05;4.57;;;2.50;;
2406;SDS011;37709;53.480;9.688;2023-09-18T12:13:33;3.23;;;2.70;;
2406;SDS011;37709;53.480;9.688;2023-09-18T12:16:02;5.97;;;2.87;;
2406;SDS011;37709;53.480;9.688;2023-09-18T12:18:33;3.20;;;2.90;;
2406;SDS011;37709;53.480;9.688;2023-09-18T12:21:05;4.37;;;2.90;;
2406;SDS011;37709;53.480;9.688;2023-09-18T12:23:37;3.50;;;2.20;;
2406;SDS011;37709;53.480;9.688;2023-09-18T12:26:15;10.13;;;3.07;;
2406;SDS011;37709;53.480;9.688;2023-09-18T12:28:43;5.67;;;2.43;;
2406;SDS011;37709;53.480;9.688;2023-09-18T12:31:12;6.20;;;2.40;;
2406;SDS011;37709;53.480;9.688;2023-09-18T12:33:41;3.87;;;2.17;;
2406;SDS011;37709;53.480;9.688;2023-09-18T12:36:19;3.50;;;2.43;;
2406;SDS011;37709;53.480;9.688;2023-09-18T12:38:56;3.90;;;2.80;;
2406;SDS011;37709;53.480;9.688;2023-09-18T12:41:25;4.20;;;2.70;;
2406;SDS011;37709;53.480;9.688;2023-09-18T12:43:59;3.87;;;2.40;;
2406;SDS011;37709;53.480;9.688;2023-09-18T12:46:26;4.30;;;2.03;;
2406;SDS011;37709;53.480;9.688;2023-09-18T12:48:56;3.90;;;1.90;;
2406;SDS011;37709;53.480;9.688;2023-09-18T12:51:29;4.53;;;2.10;;
2406;SDS011;37709;53.480;9.688;2023-09-18T12:54:01;4.83;;;1.83;;
2406;SDS011;37709;53.480;9.688;2023-09-18T12:56:33;4.00;;;2.43;;
2406;SDS011;37709;53.480;9.688;2023-09-18T12:59:08;2.63;;;1.90;;
2406;SDS011;37709;53.480;9.688;2023-09-18T13:01:45;4.90;;;2.17;;
2406;SDS011;37709;53.480;9.688;2023-09-18T13:04:13;5.87;;;2.00;;
2406;SDS011;37709;53.480;9.688;2023-09-18T13:06:42;3.57;;;2.20;;
2406;SDS011;37709;53.480;9.688;2023-09-18T13:09:19;7.20;;;2.77;;
2406;SDS011;37709;53.480;9.688;2023-09-18T13:11:54;4.77;;;2.30;;
2406;SDS011;37709;53.480;9.688;2023-09-18T13:14:23;6.97;;;2.60;;
2406;SDS011;37709;53.480;9.688;2023-09-18T13:16:52;4.30;;;2.10;;
2406;SDS011;37709;53.480;9.688;2023-09-18T13:19:20;4.60;;;2.27;;
2406;SDS011;37709;53.480;9.688;2023-09-18T13:21:48;5.87;;;2.80;;
2406;SDS011;37709;53.480;9.688;2023-09-18T13:24:26;2.97;;;2.33;;
2406;SDS011;37709;53.480;9.688;2023-09-18T13:26:55;3.20;;;2.10;;
2406;SDS011;37709;53.480;9.688;2023-09-18T13:29:23;5.13;;;2.60;;
2406;SDS011;37709;53.480;9.688;2023-09-18T13:31:51;6.13;;;2.57;;
2406;SDS011;37709;53.480;9.688;2023-09-18T13:34:20;3.20;;;2.10;;
2406;SDS011;37709;53.480;9.688;2023-09-18T13:36:49;3.10;;;2.27;;
2406;SDS011;37709;53.480;9.688;2023-09-18T13:39:16;5.60;;;2.97;;
2406;SDS011;37709;53.480;9.688;2023-09-18T13:41:43;5.47;;;2.47;;
2406;SDS011;37709;53.480;9.688;2023-09-18T13:44:12;3.70;;;2.57;;
2406;SDS011;37709;53.480;9.688;2023-09-18T13:46:40;5.10;;;2.53;;
2406;SDS011;37709;53.480;9.688;2023-09-18T13:49:09;3.40;;;2.50;;
2406;SDS011;37709;53.480;9.688;2023-09-18T13:51:36;3.53;;;2.43;;
2406;SDS011;37709;53.480;9.688;2023-09-18T13:54:04;4.17;;;2.60;;
2406;SDS011;37709;53.480;9.688;2023-09-18T13:56:34;4.40;;;2.67;;
2406;SDS011;37709;53.480;9.688;2023-09-18T13:59:02;3.97;;;2.53;;
2406;SDS011;37709;53.480;9.688;2023-09-18T14:01:34;4.13;;;2.37;;
2406;SDS011;37709;53.480;9.688;2023-09-18T14:04:02;5.37;;;2.53;;
2406;SDS011;37709;53.480;9.688;2023-09-18T14:06:32;3.63;;;2.63;;
2406;SDS011;37709;53.480;9.688;2023-09-18T14:08:59;4.93;;;2.60;;
2406;SDS011;37709;53.480;9.688;2023-09-18T14:11:27;3.60;;;2.57;;
2406;SDS011;37709;53.480;9.688;2023-09-18T14:13:54;3.07;;;2.20;;
2406;SDS011;37709;53.480;9.688;2023-09-18T14:16:21;2.70;;;2.40;;
2406;SDS011;37709;53.480;9.688;2023-09-18T14:21:42;3.70;;;2.20;;
2406;SDS011;37709;53.480;9.688;2023-09-18T14:24:15;4.33;;;2.60;;
2406;SDS011;37709;53.480;9.688;2023-09-18T14:26:49;2.87;;;2.33;;
2406;SDS011;37709;53.480;9.688;2023-09-18T14:29:17;4.70;;;2.23;;
2406;SDS011;37709;53.480;9.688;2023-09-18T14:31:44;4.20;;;2.33;;
2406;SDS011;37709;53.480;9.688;2023-09-18T14:34:13;4.80;;;2.60;;
2406;SDS011;37709;53.480;9.688;2023-09-18T14:36:41;2.77;;;2.20;;
2406;SDS011;37709;53.480;9.688;2023-09-18T14:39:15;6.60;;;2.40;;
2406;SDS011;37709;53.480;9.688;2023-09-18T14:41:45;2.70;;;2.20;;
2406;SDS011;37709;53.480;9.688;2023-09-18T14:44:12;4.23;;;2.90;;
2406;SDS011;37709;53.480;9.688;2023-09-18T14:46:40;3.30;;;2.23;;
2406;SDS011;37709;53.480;9.688;2023-09-18T14:49:08;3.63;;;1.83;;
2406;SDS011;37709;53.480;9.688;2023-09-18T14:51:36;2.70;;;2.10;;
2406;SDS011;37709;53.480;9.688;2023-09-18T14:54:03;3.20;;;2.07;;
2406;SDS011;37709;53.480;9.688;2023-09-18T14:56:32;2.37;;;1.70;;
2406;SDS011;37709;53.480;9.688;2023-09-18T14:59:00;4.37;;;2.60;;
2406;SDS011;37709;53.480;9.688;2023-09-18T15:01:28;2.80;;;2.20;;
2406;SDS011;37709;53.480;9.688;2023-09-18T15:03:55;2.83;;;1.80;;
2406;SDS011;37709;53.480;9.688;2023-09-18T15:06:24;3.30;;;2.07;;
2406;SDS011;37709;53.480;9.688;2023-09-18T15:08:54;3.43;;;1.80;;
2406;SDS011;37709;53.480;9.688;2023-09-18T15:11:22;3.50;;;1.80;;
2406;SDS011;37709;53.480;9.688;2023-09-18T15:13:50;3.37;;;1.90;;
2406;SDS011;37709;53.480;9.688;2023-09-18T15:16:21;2.27;;;1.60;;
2406;SDS011;37709;53.480;9.688;2023-09-18T15:18:52;4.00;;;1.97;;
2406;SDS011;37709;53.480;9.688;2023-09-18T15:21:24;3.37;;;1.80;;
2406;SDS011;37709;53.480;9.688;2023-09-18T15:23:53;3.17;;;2.10;;
2406;SDS011;37709;53.480;9.688;2023-09-18T15:26:21;4.53;;;1.73;;
2406;SDS011;37709;53.480;9.688;2023-09-18T15:28:52;4.53;;;2.30;;
2406;SDS011;37709;53.480;9.688;2023-09-18T15:31:20;2.87;;;1.90;;